Time;durP1;ratioP1;P1;durP2;ratioP2;P2;SDS_P1;SDS_P2;PMS_P1;PMS_P2;Temp;Humidity;BMP_temperature;BMP_pressure;BME280_temperature;BME280_humidity;BME280_pressure;Samples;Min_cycle;Max_cycle;Signal;HPM_P1;HPM_P2
2022/12/18 00:00:46;;;;;;;33.00;24.20;;;-6.00;99.90;;;;;;5080364;28;20918;-70
2022/12/18 00:03:13;;;;;;;40.10;25.97;;;-6.00;99.90;;;;;;5078642;28;20521;-69
2022/12/18 00:05:47;;;;;;;42.23;25.10;;;-5.90;99.90;;;;;;5078901;28;20470;-69
2022/12/18 00:08:14;;;;;;;43.53;25.10;;;-6.00;99.90;;;;;;5076382;28;20490;-69
2022/12/18 00:10:43;;;;;;;39.97;23.83;;;-6.00;99.90;;;;;;5075315;28;20459;-69
2022/12/18 00:13:12;;;;;;;45.50;25.60;;;-6.00;99.90;;;;;;5078842;28;21005;-70
2022/12/18 00:15:39;;;;;;;45.53;23.47;;;-6.10;99.90;;;;;;5078243;28;20460;-71
2022/12/18 00:18:07;;;;;;;45.83;25.00;;;-6.10;99.90;;;;;;5074353;28;20845;-70
2022/12/18 00:20:37;;;;;;;32.07;22.27;;;-6.10;99.90;;;;;;5080481;28;20489;-69
2022/12/18 00:23:05;;;;;;;32.00;23.03;;;-6.10;99.90;;;;;;5083266;28;20840;-69
2022/12/18 00:25:33;;;;;;;40.23;24.00;;;-6.00;99.90;;;;;;5071182;28;20816;-69
2022/12/18 00:28:01;;;;;;;29.07;22.73;;;-6.10;99.90;;;;;;5077017;28;20467;-69
2022/12/18 00:30:29;;;;;;;28.47;21.50;;;-6.10;99.90;;;;;;5085720;28;20459;-69
2022/12/18 00:32:57;;;;;;;29.20;23.47;;;-6.10;99.90;;;;;;5082915;28;20467;-69
2022/12/18 00:35:23;;;;;;;31.20;23.10;;;-6.10;99.90;;;;;;5083268;28;20467;-70
2022/12/18 00:37:50;;;;;;;43.73;24.67;;;-6.10;99.90;;;;;;5083791;28;21007;-69
2022/12/18 00:40:17;;;;;;;33.97;23.93;;;-6.10;99.90;;;;;;5081991;28;20514;-69
2022/12/18 00:42:55;;;;;;;34.50;23.00;;;-6.10;99.90;;;;;;5078954;28;20490;-69
2022/12/18 00:45:24;;;;;;;36.60;24.70;;;-6.10;99.90;;;;;;5076634;28;20459;-70
2022/12/18 00:47:51;;;;;;;35.93;23.90;;;-6.10;99.90;;;;;;5088377;28;20912;-70
2022/12/18 00:50:18;;;;;;;33.63;24.43;;;-6.10;99.90;;;;;;5088547;28;20460;-70
2022/12/18 00:52:46;;;;;;;35.70;22.37;;;-6.00;99.90;;;;;;5085657;28;20467;-69
2022/12/18 00:55:14;;;;;;;40.80;23.50;;;-6.00;99.90;;;;;;5074984;28;20470;-70
2022/12/18 00:57:41;;;;;;;31.40;19.53;;;-6.00;99.90;;;;;;5090415;28;20536;-69
2022/12/18 01:00:10;;;;;;;33.87;22.67;;;-6.00;99.90;;;;;;5088656;28;20487;-69
2022/12/18 01:02:38;;;;;;;36.47;21.87;;;-6.00;99.90;;;;;;5092454;28;20536;-69
2022/12/18 01:05:06;;;;;;;29.07;19.10;;;-6.10;99.90;;;;;;5083310;28;20491;-69
2022/12/18 01:07:33;;;;;;;32.00;23.60;;;-6.10;99.90;;;;;;5077280;28;20442;-69
2022/12/18 01:10:00;;;;;;;30.13;21.53;;;-6.10;99.90;;;;;;5078906;28;20505;-69
2022/12/18 01:12:27;;;;;;;30.20;21.67;;;-6.10;99.90;;;;;;5087597;28;20473;-70
2022/12/18 01:14:54;;;;;;;32.87;20.73;;;-6.10;99.90;;;;;;5084587;28;20506;-69
2022/12/18 01:17:22;;;;;;;31.00;21.30;;;-6.10;99.90;;;;;;5082723;28;20463;-69
2022/12/18 01:19:50;;;;;;;34.57;20.93;;;-6.00;99.90;;;;;;5084398;28;21457;-69
2022/12/18 01:22:17;;;;;;;37.43;23.77;;;-6.10;99.90;;;;;;5087344;28;20509;-69
2022/12/18 01:24:44;;;;;;;38.70;21.37;;;-6.10;99.90;;;;;;5082176;28;20489;-70
2022/12/18 01:27:11;;;;;;;41.17;22.97;;;-6.10;99.90;;;;;;5084010;28;20456;-70
2022/12/18 01:29:39;;;;;;;29.43;21.90;;;-6.20;99.90;;;;;;5081665;28;20466;-69
2022/12/18 01:32:06;;;;;;;29.00;20.93;;;-6.10;99.90;;;;;;5081345;28;20493;-70
2022/12/18 01:34:34;;;;;;;32.53;21.57;;;-6.20;99.90;;;;;;5085058;28;20462;-70
2022/12/18 01:37:03;;;;;;;36.00;22.20;;;-6.20;99.90;;;;;;5086844;28;20494;-69
2022/12/18 01:39:31;;;;;;;31.27;19.57;;;-6.10;99.90;;;;;;5076861;28;20561;-69
2022/12/18 01:42:05;;;;;;;29.47;22.03;;;-6.10;99.90;;;;;;5083931;28;20499;-68
2022/12/18 01:44:58;;;;;;;27.33;18.10;;;-6.00;99.90;;;;;;5082434;28;20804;-69
2022/12/18 01:47:28;;;;;;;31.60;21.60;;;-6.00;99.90;;;;;;5080066;28;20460;-69
2022/12/18 01:49:56;;;;;;;37.83;20.63;;;-5.90;99.90;;;;;;5084040;28;20904;-69
2022/12/18 01:52:28;;;;;;;29.03;21.60;;;-5.90;99.90;;;;;;5082772;28;20459;-69
2022/12/18 01:54:56;;;;;;;34.10;22.23;;;-5.90;99.90;;;;;;5085926;28;20743;-69
2022/12/18 01:57:25;;;;;;;29.07;20.80;;;-6.00;99.90;;;;;;5083934;28;20856;-69
2022/12/18 01:59:54;;;;;;;28.50;22.57;;;-6.00;99.90;;;;;;5083944;28;20855;-69
2022/12/18 02:02:22;;;;;;;35.00;21.53;;;-6.10;99.90;;;;;;5090238;28;20463;-69
2022/12/18 02:04:49;;;;;;;46.40;22.80;;;-6.10;99.90;;;;;;5078530;28;20884;-70
2022/12/18 02:07:24;;;;;;;33.73;22.43;;;-6.20;99.90;;;;;;5075066;28;20842;-69
2022/12/18 02:09:59;;;;;;;30.23;22.37;;;-6.20;99.90;;;;;;5081020;28;20472;-69
2022/12/18 02:12:30;;;;;;;27.37;20.33;;;-6.20;99.90;;;;;;5079450;28;20467;-69
2022/12/18 02:15:04;;;;;;;37.20;19.37;;;-6.30;99.90;;;;;;5080298;28;22425;-70
2022/12/18 02:17:37;;;;;;;32.70;21.40;;;-6.40;99.90;;;;;;5088749;28;20462;-70
2022/12/18 02:20:14;;;;;;;36.73;23.17;;;-6.40;99.90;;;;;;5080747;28;20978;-69
2022/12/18 02:22:50;;;;;;;31.47;21.30;;;-6.40;99.90;;;;;;5077108;28;20530;-69
2022/12/18 02:25:35;;;;;;;32.80;22.00;;;-6.40;99.90;;;;;;5077413;28;20471;-70
2022/12/18 02:28:07;;;;;;;33.77;23.93;;;-6.40;99.90;;;;;;5081603;28;20865;-69
2022/12/18 02:30:36;;;;;;;29.37;19.10;;;-6.40;99.90;;;;;;5076796;28;20460;-69
2022/12/18 02:33:06;;;;;;;30.37;22.30;;;-6.50;99.90;;;;;;5077377;28;20463;-70
2022/12/18 02:35:34;;;;;;;28.23;20.77;;;-6.50;99.90;;;;;;5093412;28;20951;-69
2022/12/18 02:38:03;;;;;;;31.57;19.53;;;-6.50;99.90;;;;;;5079137;28;20826;-69
2022/12/18 02:40:31;;;;;;;32.37;22.67;;;-6.60;99.90;;;;;;5077771;28;20481;-69
2022/12/18 02:43:08;;;;;;;25.17;20.50;;;-6.50;99.90;;;;;;5082100;28;20464;-69
2022/12/18 02:45:35;;;;;;;39.63;20.60;;;-6.60;99.90;;;;;;5075927;28;20637;-69
2022/12/18 02:48:02;;;;;;;29.23;21.27;;;-6.60;99.90;;;;;;5079998;28;20971;-69
2022/12/18 02:50:35;;;;;;;26.67;20.60;;;-6.50;99.90;;;;;;5088697;28;21060;-70
2022/12/18 02:53:10;;;;;;;26.87;18.60;;;-6.50;99.90;;;;;;5082576;28;20871;-69
2022/12/18 02:55:49;;;;;;;33.03;21.10;;;-6.50;99.90;;;;;;5082584;28;20467;-69
2022/12/18 02:58:21;;;;;;;30.33;20.80;;;-6.40;99.90;;;;;;5079115;28;21090;-69
2022/12/18 03:00:54;;;;;;;37.50;22.93;;;-6.40;99.90;;;;;;5043656;28;20496;-69
2022/12/18 03:03:29;;;;;;;28.73;22.47;;;-6.30;99.90;;;;;;5073005;28;20985;-69
2022/12/18 03:06:01;;;;;;;27.77;20.43;;;-6.30;99.90;;;;;;5082297;28;20467;-69
2022/12/18 03:08:30;;;;;;;33.37;21.17;;;-6.30;99.90;;;;;;5079980;28;20470;-69
2022/12/18 03:11:01;;;;;;;30.10;20.93;;;-6.30;99.90;;;;;;5075629;28;20457;-69
2022/12/18 03:13:34;;;;;;;34.90;23.40;;;-6.30;99.90;;;;;;5077006;28;20456;-69
2022/12/18 03:16:03;;;;;;;31.60;20.80;;;-6.30;99.90;;;;;;5078720;28;20804;-70
2022/12/18 03:18:35;;;;;;;29.47;22.77;;;-6.30;99.90;;;;;;5078834;28;20494;-69
2022/12/18 03:21:06;;;;;;;35.53;20.57;;;-6.30;99.90;;;;;;5087048;28;20832;-69
2022/12/18 03:23:36;;;;;;;25.80;17.73;;;-6.30;99.90;;;;;;5087339;28;20824;-69
2022/12/18 03:26:07;;;;;;;29.80;21.77;;;-6.20;99.90;;;;;;5076830;28;20546;-69
2022/12/18 03:28:38;;;;;;;28.43;21.73;;;-6.20;99.90;;;;;;5079717;28;20464;-69
2022/12/18 03:31:06;;;;;;;29.60;23.00;;;-6.10;99.90;;;;;;5080053;28;20559;-69
2022/12/18 03:33:40;;;;;;;31.90;22.73;;;-6.10;99.90;;;;;;5080073;28;20502;-69
2022/12/18 03:36:07;;;;;;;32.93;21.13;;;-6.10;99.90;;;;;;5081179;28;20925;-69
2022/12/18 03:38:35;;;;;;;33.20;22.63;;;-6.10;99.90;;;;;;5087333;28;20501;-69
2022/12/18 03:41:08;;;;;;;36.87;22.70;;;-6.10;99.90;;;;;;5073760;28;21018;-69
2022/12/18 03:43:43;;;;;;;38.60;22.30;;;-6.20;99.90;;;;;;5081086;28;20711;-69
2022/12/18 03:46:22;;;;;;;32.53;22.80;;;-6.20;99.90;;;;;;5074043;28;20454;-69
2022/12/18 03:48:53;;;;;;;34.57;21.93;;;-6.10;99.90;;;;;;5081965;28;20875;-69
2022/12/18 03:51:27;;;;;;;30.33;24.10;;;-6.10;99.90;;;;;;5078493;28;20483;-69
2022/12/18 03:53:59;;;;;;;31.67;24.43;;;-6.10;99.90;;;;;;5075423;28;20463;-69
2022/12/18 03:56:29;;;;;;;31.03;21.60;;;-6.20;99.90;;;;;;5080619;28;20473;-69
2022/12/18 03:58:59;;;;;;;32.47;22.63;;;-6.20;99.90;;;;;;5081330;28;20476;-69
2022/12/18 04:01:31;;;;;;;35.67;24.30;;;-6.20;99.90;;;;;;5063156;28;20494;-69
2022/12/18 04:04:00;;;;;;;31.23;22.53;;;-6.20;99.90;;;;;;5087933;28;21087;-69
2022/12/18 04:06:29;;;;;;;32.07;22.20;;;-6.20;99.90;;;;;;5082432;28;20499;-69
2022/12/18 04:08:57;;;;;;;32.90;22.27;;;-6.20;99.90;;;;;;5079379;28;20984;-69
2022/12/18 04:11:23;;;;;;;33.50;22.17;;;-6.30;99.90;;;;;;5078382;28;20841;-69
2022/12/18 04:13:50;;;;;;;31.10;21.90;;;-6.20;99.90;;;;;;5080597;28;20474;-69
2022/12/18 04:16:19;;;;;;;33.90;23.33;;;-6.10;99.90;;;;;;5076520;28;20467;-69
2022/12/18 04:18:46;;;;;;;40.70;24.60;;;-6.10;99.90;;;;;;5084472;28;20488;-69
2022/12/18 04:21:13;;;;;;;32.73;22.20;;;-6.10;99.90;;;;;;5081265;28;20481;-69
2022/12/18 04:23:40;;;;;;;31.87;21.00;;;-6.20;99.90;;;;;;5081644;28;20972;-69
2022/12/18 04:26:07;;;;;;;33.63;22.93;;;-6.20;99.90;;;;;;5070687;28;20467;-69
2022/12/18 04:28:33;;;;;;;30.77;23.33;;;-6.30;99.90;;;;;;5079627;28;20460;-70
2022/12/18 04:31:00;;;;;;;44.37;25.13;;;-6.30;99.90;;;;;;5073741;28;20475;-69
2022/12/18 04:33:28;;;;;;;29.93;21.07;;;-6.30;99.90;;;;;;5081076;28;20467;-69
2022/12/18 04:35:55;;;;;;;41.83;22.57;;;-6.30;99.90;;;;;;5075823;28;21071;-69
2022/12/18 04:38:22;;;;;;;29.63;22.40;;;-6.30;99.90;;;;;;5079085;28;20467;-69
2022/12/18 04:40:48;;;;;;;34.57;23.60;;;-6.20;99.90;;;;;;5076595;28;20487;-69
2022/12/18 04:43:15;;;;;;;35.77;22.27;;;-6.30;99.90;;;;;;5085282;28;20957;-70
2022/12/18 04:45:43;;;;;;;36.67;23.40;;;-6.40;99.90;;;;;;5079153;28;20550;-69
2022/12/18 04:48:10;;;;;;;35.10;23.87;;;-6.40;99.90;;;;;;5078822;28;20750;-69
2022/12/18 04:50:39;;;;;;;30.63;22.60;;;-6.40;99.90;;;;;;5079383;28;20474;-69
2022/12/18 04:53:06;;;;;;;37.13;23.17;;;-6.50;99.90;;;;;;5078409;28;20463;-69
2022/12/18 04:55:33;;;;;;;33.13;22.83;;;-6.40;99.90;;;;;;5072291;28;21035;-69
2022/12/18 04:57:59;;;;;;;35.70;21.93;;;-6.40;99.90;;;;;;5082734;28;21063;-69
2022/12/18 05:00:27;;;;;;;44.10;22.20;;;-6.30;99.90;;;;;;5076205;28;21590;-69
2022/12/18 05:02:53;;;;;;;32.50;21.20;;;-6.30;99.90;;;;;;5077003;28;21044;-69
2022/12/18 05:05:20;;;;;;;31.93;21.53;;;-6.30;99.90;;;;;;5079005;28;20479;-69
2022/12/18 05:07:50;;;;;;;31.73;22.17;;;-6.30;99.90;;;;;;5075953;28;20827;-69
2022/12/18 05:10:16;;;;;;;30.73;22.97;;;-6.30;99.90;;;;;;5086411;28;20469;-69
2022/12/18 05:15:24;;;;;;;23.63;19.73;;;-6.20;99.90;;;;;;5077405;28;20750;-69
2022/12/18 05:17:51;;;;;;;34.03;23.10;;;-6.20;99.90;;;;;;5079591;28;20844;-69
2022/12/18 05:20:19;;;;;;;30.07;21.83;;;-6.10;99.90;;;;;;5081829;28;20473;-69
2022/12/18 05:22:46;;;;;;;36.33;22.50;;;-6.10;99.90;;;;;;5091427;28;20525;-69
2022/12/18 05:25:15;;;;;;;26.50;22.13;;;-6.10;99.90;;;;;;5084026;28;20459;-70
2022/12/18 05:27:43;;;;;;;26.70;19.77;;;-6.10;99.90;;;;;;5079055;28;20466;-69
2022/12/18 05:30:10;;;;;;;37.57;23.10;;;;;;;;;;5081983;28;20467;-69
2022/12/18 05:32:37;;;;;;;30.40;21.70;;;-6.10;99.90;;;;;;5082962;28;20517;-69
2022/12/18 05:35:06;;;;;;;29.77;21.70;;;-6.10;99.90;;;;;;5079416;28;20470;-69
2022/12/18 05:37:33;;;;;;;29.87;19.67;;;-6.10;99.90;;;;;;5081966;28;20957;-70
2022/12/18 05:40:00;;;;;;;26.43;20.37;;;-6.00;99.90;;;;;;5081821;28;20467;-69
2022/12/18 05:42:30;;;;;;;36.37;21.90;;;-6.00;99.90;;;;;;5085879;28;20614;-69
2022/12/18 05:44:57;;;;;;;27.57;22.20;;;-6.00;99.90;;;;;;5083288;28;20463;-69
2022/12/18 05:47:23;;;;;;;28.73;22.33;;;-6.00;99.90;;;;;;5040520;28;20459;-69
2022/12/18 05:49:50;;;;;;;41.27;24.37;;;;;;;;;;5079100;28;20468;-69
2022/12/18 05:52:17;;;;;;;32.80;22.03;;;-6.10;99.90;;;;;;5082915;28;20470;-70
2022/12/18 05:54:44;;;;;;;33.17;21.67;;;-6.10;99.90;;;;;;5081383;28;20957;-69
2022/12/18 05:57:12;;;;;;;29.57;22.27;;;-6.10;99.90;;;;;;5082826;28;20490;-69
2022/12/18 05:59:40;;;;;;;30.03;21.47;;;-6.20;99.90;;;;;;5088493;28;20892;-69
2022/12/18 06:02:07;;;;;;;34.20;21.60;;;-6.20;99.90;;;;;;5081743;28;20493;-69
2022/12/18 06:04:34;;;;;;;30.03;22.63;;;-6.20;99.90;;;;;;5079095;28;20490;-69
2022/12/18 06:07:01;;;;;;;32.10;23.20;;;-6.20;99.90;;;;;;5080892;28;20962;-69
2022/12/18 06:09:28;;;;;;;31.37;21.47;;;-6.30;99.90;;;;;;5083473;28;20464;-70
2022/12/18 06:11:55;;;;;;;32.67;21.50;;;;;;;;;;5077137;28;20477;-69
2022/12/18 06:14:21;;;;;;;32.67;20.57;;;-6.30;99.90;;;;;;5075493;28;20484;-69
2022/12/18 06:16:51;;;;;;;35.23;22.30;;;-6.40;99.90;;;;;;5069798;28;20464;-69
2022/12/18 06:19:18;;;;;;;30.87;22.40;;;-6.30;99.90;;;;;;5081525;28;20467;-69
2022/12/18 06:21:44;;;;;;;32.97;22.07;;;-6.30;99.90;;;;;;5091926;28;20488;-69
2022/12/18 06:24:11;;;;;;;33.50;23.07;;;-6.20;99.90;;;;;;5085393;28;20843;-69
2022/12/18 06:26:39;;;;;;;35.80;23.00;;;-6.20;99.90;;;;;;5078339;28;20509;-69
2022/12/18 06:29:06;;;;;;;32.73;21.90;;;-6.10;99.90;;;;;;5079650;28;20957;-69
2022/12/18 06:31:34;;;;;;;32.80;22.50;;;-6.10;99.90;;;;;;5077812;28;20567;-70
2022/12/18 06:34:03;;;;;;;32.07;22.00;;;-6.10;99.90;;;;;;5082235;28;20568;-69
2022/12/18 06:36:31;;;;;;;39.80;24.57;;;-6.10;99.90;;;;;;5082046;28;20487;-69
2022/12/18 06:38:58;;;;;;;37.87;21.97;;;-6.10;99.90;;;;;;5092498;28;20883;-69
2022/12/18 06:41:25;;;;;;;38.17;22.73;;;-6.10;99.90;;;;;;5079565;28;20610;-69
2022/12/18 06:43:52;;;;;;;33.50;22.73;;;;;;;;;;5073397;28;20464;-69
2022/12/18 06:46:20;;;;;;;28.40;22.27;;;-6.10;99.90;;;;;;5080637;28;20517;-69
2022/12/18 06:48:49;;;;;;;28.47;20.60;;;-6.10;99.90;;;;;;5078055;28;20466;-69
2022/12/18 06:51:19;;;;;;;33.97;22.50;;;-6.20;99.90;;;;;;5074362;28;20593;-69
2022/12/18 06:53:47;;;;;;;31.90;22.50;;;-6.20;99.90;;;;;;5083878;28;20464;-69
2022/12/18 06:56:13;;;;;;;39.43;23.73;;;-6.30;99.90;;;;;;5087731;28;20459;-69
2022/12/18 06:58:40;;;;;;;34.87;23.67;;;-6.30;99.90;;;;;;5081244;28;20491;-70
2022/12/18 07:01:10;;;;;;;34.60;23.10;;;-6.30;99.90;;;;;;5078932;28;20545;-69
2022/12/18 07:03:38;;;;;;;34.30;22.47;;;-6.30;99.90;;;;;;5075284;28;20537;-69
2022/12/18 07:06:05;;;;;;;33.10;21.20;;;-6.30;99.90;;;;;;5074410;28;20534;-69
2022/12/18 07:08:34;;;;;;;25.30;20.40;;;-6.20;99.90;;;;;;5076288;28;20458;-69
2022/12/18 07:11:05;;;;;;;35.23;23.20;;;-6.20;99.90;;;;;;5078307;28;20470;-70
2022/12/18 07:13:31;;;;;;;34.23;24.37;;;-6.10;99.90;;;;;;5077693;28;20554;-68
2022/12/18 07:16:05;;;;;;;26.93;20.27;;;-6.10;99.90;;;;;;5075713;28;20842;-69
2022/12/18 07:18:33;;;;;;;34.10;21.83;;;-6.20;99.90;;;;;;5075816;28;20468;-69
2022/12/18 07:21:04;;;;;;;31.20;21.37;;;-6.20;99.90;;;;;;5077528;28;20497;-69
2022/12/18 07:23:34;;;;;;;28.27;21.90;;;-6.10;99.90;;;;;;5081929;28;20562;-69
2022/12/18 07:26:05;;;;;;;32.23;22.97;;;-6.20;99.90;;;;;;5081520;28;20472;-69
2022/12/18 07:28:33;;;;;;;36.77;24.00;;;-6.10;99.90;;;;;;5080021;28;20463;-70
2022/12/18 07:31:03;;;;;;;41.50;24.73;;;-6.20;99.90;;;;;;5079045;28;20461;-69
2022/12/18 07:33:30;;;;;;;30.23;22.03;;;-6.20;99.90;;;;;;5077712;28;20463;-69
2022/12/18 07:35:59;;;;;;;36.97;24.43;;;-6.10;99.90;;;;;;5081960;28;20962;-69
2022/12/18 07:38:25;;;;;;;30.90;22.77;;;-6.10;99.90;;;;;;5082250;28;20455;-69
2022/12/18 07:40:53;;;;;;;30.70;21.17;;;-6.10;99.90;;;;;;5083586;28;20789;-70
2022/12/18 07:43:21;;;;;;;39.03;21.63;;;-6.10;99.90;;;;;;5076594;28;21020;-69
2022/12/18 07:45:50;;;;;;;31.27;22.87;;;-6.10;99.90;;;;;;5078094;28;20456;-69
2022/12/18 07:48:17;;;;;;;35.40;24.97;;;;;;;;;;5078741;28;20543;-69
2022/12/18 07:50:45;;;;;;;34.40;23.23;;;-6.10;99.90;;;;;;5080251;28;20468;-69
2022/12/18 07:53:12;;;;;;;34.07;23.10;;;-6.10;99.90;;;;;;5081288;28;20550;-69
2022/12/18 07:55:38;;;;;;;33.07;23.97;;;-6.10;99.90;;;;;;5079725;28;20870;-69
2022/12/18 07:58:07;;;;;;;31.87;24.60;;;-6.10;99.90;;;;;;5077444;28;20486;-69
2022/12/18 08:00:35;;;;;;;33.23;24.00;;;-6.10;99.90;;;;;;5077547;28;20468;-69
2022/12/18 08:03:02;;;;;;;30.73;23.90;;;-6.10;99.90;;;;;;5081231;28;20493;-69
2022/12/18 08:05:29;;;;;;;36.23;24.90;;;-6.10;99.90;;;;;;5090456;28;20480;-70
2022/12/18 08:07:56;;;;;;;41.30;24.60;;;-6.00;99.90;;;;;;5088401;28;20463;-69
2022/12/18 08:10:22;;;;;;;38.70;25.03;;;-6.00;99.90;;;;;;5079132;28;20561;-69
2022/12/18 08:12:51;;;;;;;30.67;24.50;;;;;;;;;;5088894;28;20460;-69
2022/12/18 08:15:19;;;;;;;32.57;23.37;;;-5.80;99.90;;;;;;5085376;28;20450;-69
2022/12/18 08:17:46;;;;;;;43.47;25.60;;;-5.80;99.90;;;;;;5085666;28;20832;-69
2022/12/18 08:20:13;;;;;;;37.27;25.77;;;-5.70;99.90;;;;;;5093672;28;20471;-69
2022/12/18 08:22:40;;;;;;;38.63;25.80;;;-5.70;99.90;;;;;;5084089;28;20488;-69
2022/12/18 08:25:08;;;;;;;31.80;24.60;;;-5.60;99.90;;;;;;5077312;28;21183;-69
2022/12/18 08:27:35;;;;;;;50.93;24.30;;;-5.50;99.90;;;;;;5079448;28;21021;-70
2022/12/18 08:30:01;;;;;;;42.00;25.93;;;-5.40;99.90;;;;;;5080719;28;20455;-69
2022/12/18 08:32:30;;;;;;;33.33;24.70;;;-5.20;99.90;;;;;;5081726;28;20473;-69
2022/12/18 08:34:58;;;;;;;35.77;25.33;;;-5.20;99.90;;;;;;5082557;28;20824;-70
2022/12/18 08:37:24;;;;;;;36.23;24.60;;;-5.10;99.90;;;;;;5083453;28;20461;-69
2022/12/18 08:39:51;;;;;;;32.10;22.30;;;;;;;;;;5081290;28;20466;-69
2022/12/18 08:45:03;;;;;;;33.40;22.70;;;-4.90;99.90;;;;;;5072487;28;20468;-69
2022/12/18 08:47:32;;;;;;;51.70;24.20;;;-4.80;99.90;;;;;;5075331;28;20471;-69
2022/12/18 08:49:59;;;;;;;35.03;24.37;;;-4.60;99.90;;;;;;5087658;28;20454;-69
2022/12/18 08:52:26;;;;;;;40.23;23.97;;;-4.50;99.90;;;;;;5089700;28;20456;-69
2022/12/18 08:54:53;;;;;;;44.17;25.83;;;-4.40;99.90;;;;;;5082245;28;21012;-69
2022/12/18 08:57:19;;;;;;;36.80;25.50;;;-4.30;99.90;;;;;;5081957;28;20972;-69
2022/12/18 08:59:46;;;;;;;44.37;24.50;;;;;;;;;;5081563;28;20470;-69
2022/12/18 09:02:14;;;;;;;38.50;24.60;;;-4.20;99.90;;;;;;5084234;28;20482;-70
2022/12/18 09:04:43;;;;;;;41.60;25.20;;;-4.10;99.90;;;;;;5081129;28;20486;-69
2022/12/18 09:07:10;;;;;;;42.10;26.40;;;-4.00;99.90;;;;;;5089635;28;20555;-69
2022/12/18 09:09:37;;;;;;;32.37;23.50;;;-4.00;99.90;;;;;;5085364;28;20471;-69
2022/12/18 09:12:05;;;;;;;37.20;24.93;;;-3.90;99.90;;;;;;5082757;28;20529;-69
2022/12/18 09:14:31;;;;;;;41.47;26.37;;;-3.90;99.90;;;;;;5086916;28;20461;-70
2022/12/18 09:16:59;;;;;;;35.00;25.20;;;-3.80;99.90;;;;;;5080986;28;20504;-69
2022/12/18 09:19:26;;;;;;;40.77;26.13;;;-3.70;99.90;;;;;;5084459;28;20457;-70
2022/12/18 09:21:56;;;;;;;39.77;23.57;;;-3.70;99.90;;;;;;5080424;28;20603;-69
2022/12/18 09:24:23;;;;;;;37.83;24.97;;;-3.60;99.90;;;;;;5086296;28;20478;-70
2022/12/18 09:26:53;;;;;;;34.50;24.57;;;-3.50;99.90;;;;;;5083735;28;20454;-70
2022/12/18 09:29:20;;;;;;;38.17;27.27;;;-3.40;99.90;;;;;;5087275;28;20979;-69
2022/12/18 09:31:49;;;;;;;38.27;25.03;;;-3.30;99.90;;;;;;5082231;28;20484;-70
2022/12/18 09:34:16;;;;;;;40.17;25.40;;;-3.20;99.90;;;;;;5078771;28;20489;-70
2022/12/18 09:36:43;;;;;;;40.53;27.67;;;-3.10;99.90;;;;;;5081451;28;20459;-69
2022/12/18 09:39:12;;;;;;;31.33;23.60;;;-3.00;99.90;;;;;;5080808;28;20466;-69
2022/12/18 09:41:47;;;;;;;43.13;26.70;;;-2.90;99.90;;;;;;5080983;28;20489;-69
2022/12/18 09:44:37;;;;;;;34.40;26.63;;;-2.80;99.90;;;;;;5081430;28;20468;-69
2022/12/18 09:47:11;;;;;;;38.80;25.87;;;-2.70;99.90;;;;;;5082872;28;20466;-69
2022/12/18 09:49:42;;;;;;;32.37;25.40;;;-2.70;99.90;;;;;;5081116;28;20960;-69
2022/12/18 09:52:15;;;;;;;39.27;25.17;;;-2.70;99.90;;;;;;5076737;28;20498;-70
2022/12/18 09:54:44;;;;;;;36.57;28.20;;;-2.50;99.90;;;;;;5080859;28;20549;-69
2022/12/18 09:57:15;;;;;;;34.83;26.90;;;-2.50;99.90;;;;;;5089645;28;20539;-69
2022/12/18 09:59:45;;;;;;;31.13;25.90;;;-2.40;99.90;;;;;;5082891;28;20472;-70
2022/12/18 10:02:17;;;;;;;38.40;28.60;;;-2.30;99.90;;;;;;5081261;28;20804;-70
2022/12/18 10:04:49;;;;;;;39.07;27.00;;;-2.20;99.90;;;;;;5084656;28;20484;-69
2022/12/18 10:07:20;;;;;;;38.70;27.03;;;;;;;;;;5080144;28;20827;-70
2022/12/18 10:09:58;;;;;;;41.93;30.33;;;-2.10;99.90;;;;;;5074537;28;20460;-69
2022/12/18 10:12:37;;;;;;;40.00;29.23;;;-2.10;99.90;;;;;;5075643;28;20467;-70
2022/12/18 10:15:11;;;;;;;45.20;30.20;;;-2.00;99.90;;;;;;5082327;28;20564;-69
2022/12/18 10:17:43;;;;;;;43.33;29.73;;;-1.90;99.90;;;;;;5083940;28;20456;-69
2022/12/18 10:20:16;;;;;;;36.43;28.73;;;-1.90;99.90;;;;;;5079878;28;20472;-70
2022/12/18 10:22:54;;;;;;;43.73;29.60;;;-1.80;99.90;;;;;;5079334;28;20487;-70
2022/12/18 10:25:26;;;;;;;38.13;29.73;;;-1.70;99.90;;;;;;5076032;28;20541;-70
2022/12/18 10:27:55;;;;;;;42.70;29.17;;;-1.50;99.90;;;;;;5081769;28;20483;-70
2022/12/18 10:30:23;;;;;;;52.80;30.10;;;-1.40;99.90;;;;;;5079194;28;20464;-70
2022/12/18 10:32:51;;;;;;;41.30;29.47;;;-1.30;99.90;;;;;;5082147;28;20469;-69
2022/12/18 10:35:21;;;;;;;32.90;28.17;;;-1.40;99.90;;;;;;5082655;28;20476;-70
2022/12/18 10:38:02;;;;;;;40.57;29.70;;;-1.30;99.90;;;;;;5077156;28;20549;-69
2022/12/18 10:40:31;;;;;;;40.73;29.37;;;-1.40;99.90;;;;;;5080068;28;20807;-70
2022/12/18 10:43:12;;;;;;;32.80;25.50;;;;;;;;;;5084051;28;20999;-70
2022/12/18 10:45:40;;;;;;;39.23;29.07;;;-1.40;99.90;;;;;;5070481;28;20468;-71
2022/12/18 10:48:19;;;;;;;37.83;31.27;;;-1.30;99.90;;;;;;5080429;28;20547;-70
2022/12/18 10:50:51;;;;;;;36.40;30.83;;;-1.30;99.90;;;;;;5080987;28;20487;-70
2022/12/18 10:53:22;;;;;;;37.90;30.17;;;-1.20;99.90;;;;;;5079030;28;20468;-70
2022/12/18 10:55:52;;;;;;;48.17;31.03;;;-1.20;99.90;;;;;;5083719;28;20469;-70
2022/12/18 10:58:25;;;;;;;42.57;30.50;;;-1.10;99.90;;;;;;5086653;28;20486;-70
2022/12/18 11:01:07;;;;;;;39.60;30.00;;;-1.00;99.90;;;;;;5080017;28;20471;-70
2022/12/18 11:03:36;;;;;;;38.23;30.30;;;-0.90;99.90;;;;;;5076741;28;21018;-70
2022/12/18 11:06:07;;;;;;;40.80;30.63;;;-0.90;99.90;;;;;;5077671;28;20458;-70
2022/12/18 11:08:34;;;;;;;41.13;30.47;;;-0.80;99.90;;;;;;5081162;28;20534;-70
2022/12/18 11:11:08;;;;;;;42.17;29.87;;;-0.70;99.90;;;;;;5072952;28;20977;-70
2022/12/18 11:13:35;;;;;;;38.90;29.97;;;;;;;;;;5077610;28;20558;-70
2022/12/18 11:16:02;;;;;;;40.70;30.40;;;-0.80;99.90;;;;;;5076025;28;20469;-70
2022/12/18 11:18:32;;;;;;;34.83;28.50;;;-0.60;99.90;;;;;;5083658;28;20461;-70
2022/12/18 11:21:02;;;;;;;39.33;30.00;;;-0.50;99.90;;;;;;5079990;28;20465;-70
2022/12/18 11:23:29;;;;;;;40.93;30.60;;;-0.40;99.90;;;;;;5079090;28;20482;-70
2022/12/18 11:25:58;;;;;;;34.90;28.57;;;-0.20;99.90;;;;;;5081742;28;20481;-70
2022/12/18 11:28:38;;;;;;;38.23;29.40;;;-0.40;99.90;;;;;;5082331;28;20464;-70
2022/12/18 11:31:22;;;;;;;36.47;30.50;;;-0.30;99.90;;;;;;5079939;28;20454;-70
2022/12/18 11:33:59;;;;;;;40.83;29.97;;;-0.40;99.90;;;;;;5072001;28;20824;-70
2022/12/18 11:36:31;;;;;;;40.20;28.17;;;-0.40;99.90;;;;;;5072517;28;20475;-70
2022/12/18 11:39:04;;;;;;;33.37;28.30;;;-0.40;99.90;;;;;;5079618;28;20459;-70
2022/12/18 11:44:20;;;;;;;35.93;30.00;;;-0.50;99.90;;;;;;5067787;28;20553;-70
2022/12/18 11:46:51;;;;;;;42.30;29.70;;;-0.50;99.90;;;;;;5089425;28;21179;-70
2022/12/18 11:49:23;;;;;;;39.37;28.60;;;-0.50;99.90;;;;;;5075386;28;20455;-70
2022/12/18 11:51:53;;;;;;;36.20;29.80;;;;;;;;;;5079074;28;20547;-70
2022/12/18 11:54:20;;;;;;;37.00;27.20;;;-0.50;99.90;;;;;;5072759;28;20474;-70
2022/12/18 11:56:50;;;;;;;39.43;30.30;;;-0.50;99.90;;;;;;5082685;28;20476;-70
2022/12/18 11:59:28;;;;;;;39.63;30.77;;;-0.50;99.90;;;;;;5091674;28;20464;-70
2022/12/18 12:01:58;;;;;;;31.47;26.23;;;-0.60;99.90;;;;;;5078107;28;20464;-70
2022/12/18 12:04:37;;;;;;;39.37;27.50;;;;;;;;;;5080638;28;20507;-70
2022/12/18 12:07:15;;;;;;;44.77;28.20;;;-0.60;99.90;;;;;;5079561;28;20468;-70
2022/12/18 12:09:48;;;;;;;43.20;29.50;;;-0.50;99.90;;;;;;5083688;28;20867;-70
2022/12/18 12:12:30;;;;;;;46.70;28.17;;;-0.50;99.90;;;;;;5082207;28;20469;-70
2022/12/18 12:15:03;;;;;;;47.90;27.20;;;;;;;;;;5083342;28;20474;-71
2022/12/18 12:17:38;;;;;;;30.13;26.77;;;-0.50;99.90;;;;;;5075489;28;20601;-70
2022/12/18 12:20:15;;;;;;;37.60;28.40;;;-0.50;99.90;;;;;;5084403;28;20491;-70
2022/12/18 12:22:50;;;;;;;29.10;23.63;;;-0.50;99.90;;;;;;5085368;28;20472;-70
2022/12/18 12:25:30;;;;;;;42.03;27.70;;;-0.60;99.90;;;;;;5079489;28;20476;-70
2022/12/18 12:28:11;;;;;;;37.47;29.27;;;-0.50;99.90;;;;;;5085767;28;21065;-70
2022/12/18 12:30:51;;;;;;;38.83;28.60;;;-0.50;99.90;;;;;;5086029;28;20553;-69
2022/12/18 12:33:33;;;;;;;32.80;25.50;;;-0.50;99.90;;;;;;5079684;28;20464;-70
2022/12/18 12:36:09;;;;;;;42.10;25.63;;;-0.60;99.90;;;;;;5082288;28;20970;-70
2022/12/18 12:38:38;;;;;;;36.57;28.07;;;;;;;;;;5087041;28;20468;-70
2022/12/18 12:43:12;;;;;;;32.90;25.90;;;-0.50;99.90;;;;;;5081797;28;20464;-70
2022/12/18 12:43:59;;;;;;;32.37;25.00;;;-0.40;99.90;;;;;;5082671;28;20984;-70
2022/12/18 12:46:30;;;;;;;34.13;26.70;;;-0.40;99.90;;;;;;5084168;28;20572;-70
2022/12/18 12:49:00;;;;;;;37.40;28.83;;;-0.40;99.90;;;;;;5084008;28;20465;-70
2022/12/18 12:51:30;;;;;;;32.77;28.00;;;-0.40;99.90;;;;;;5081383;28;20467;-70